Strona główna
METAR-TAF:

METAR-TAF

Lotnisko :

Ashtabula County Airport

Ashtabula, Ohio, Stany Zjednoczone

Szerokość geograficzna: 41-46-46N, Długość geograficzna: 080-41-48W, wysokość: 281 m

Aktualna obserwacja pogody

Raport powstał 12 minut temu, godzina 09:53 UTC
Wiatr 11 kt od zachód w porywach dochodzący do 19 kt
Temperatura -6°C
Wilgotność 68%
Ciśnienie 1011 hPa
Widzialność: 14.5 km
Zachmurzenie całkowite na wysokości 3100 ft

METAR: KHZY 280953Z AUTO 28011G19KT 9SM OVC031 M06/M11 A2985 RMK AO2 SNE02B31E51 SLP121 P0000 T10561111

czas: 05:05 (10:05 UTC)


TAF: brakujący

Obserwacja i prognoza pogody dla ponad 4000 lotnisk (raport METAR i TAF).

Dostępne stacje oznaczono żółtymi i czerwonymi punktami na mapie.

Najedź kursorem aby zobaczyć nazwę stacji.

Kliknij aby zobaczyć obserwacje i prognozy pogody.

Aby zmienić mapę: kliknij na zielony przycisk z czarnym krzyżykiem, aby powiększyć; na zielony przycisk z myślnikiem, aby pomniejszyć; na zielone strzałki, aby przejść do map sąsiednich.


METAR-TAF: